Helliar — 2EPP5 — position and weather

sailwx.info

Track history (hours):
 
Tides and Currents Weather Stations Pressure Air Temp Water Temp Dewpoint Dewpoint Depression Visibility Wind Speed Wind Dir Waves Ship Positions

Helliar

Last reported at 2014-Aug-02 13:13 UTC. Time now 2014-Aug-23 13:26 UTC.
Position N 53°32' W 003°11'.
Warning: this ship's position is 21 days out of date.

Length 122 m; draft 5 m.

Type: Cargo ship. MMSI: 235087119.

Date/timePositionNaut miles runAvg speedWind from/ knotsBaromVisibWave heightAir tempDewpointWater temp
2014-Aug-02 13:13N 53°32' W 003°11'6 7.0
2014-Aug-02 12:19N 53°31' W 003°22'5 6.9
2014-Aug-02 11:34N 53°31' W 003°30'1312.7
2014-Aug-02 10:33N 53°32' W 003°52'1313.0
2014-Aug-02 09:33N 53°39' W 004°10'5410.7
2014-Aug-02 04:33N 54°21' W 005°08'1211.8
2014-Aug-02 03:33N 54°31' W 005°16'1111.4
2014-Aug-02 02:33N 54°42' W 005°24'1212.1
2014-Aug-02 01:33N 54°52' W 005°34'1312.8
2014-Aug-02 00:30N 55°04' W 005°45'1414.2
2014-Aug-01 23:33N 55°15' W 005°60'1515.0
2014-Aug-01 22:33N 55°23' W 006°21'1514.9
2014-Aug-01 21:34N 55°33' W 006°41'1414.1
2014-Aug-01 20:33N 55°44' W 006°57'19711.6
2014-Aug-01 03:33N 58°44' W 004°29'1414.2
2014-Aug-01 02:33N 58°43' W 004°02'1313.4
2014-Aug-01 01:33N 58°43' W 003°36'1312.1
2014-Aug-01 00:31N 58°43' W 003°11'7 7.7
2014-Jul-31 23:33N 58°39' W 002°59'5813.5
2014-Jul-31 19:15N 57°50' W 001°60'1014.4
2014-Jul-31 18:34N 57°42' W 001°50'1313.2
2014-Jul-31 17:33N 57°29' W 001°44'1312.5
2014-Jul-31 16:33N 57°17' W 001°51'1110.9
2014-Jul-31 15:30N 57°09' W 002°05'0 0.2
2014-Jul-31 14:28N 57°09' W 002°05'0 0.0
2014-Jul-31 13:28N 57°09' W 002°05'0 0.0
2014-Jul-31 12:28N 57°09' W 002°05'0 0.0
2014-Jul-31 11:28N 57°09' W 002°05'0 0.0
2014-Jul-31 10:22N 57°09' W 002°05'0 0.0
2014-Jul-31 09:28N 57°09' W 002°05'0 0.0
2014-Jul-31 08:28N 57°09' W 002°05'0 0.0
2014-Jul-31 07:29N 57°09' W 002°05'12 6.4
2014-Jul-31 05:33N 57°18' W 001°50'1313.2
2014-Jul-31 04:33N 57°30' W 001°40'1514.9
2014-Jul-31 03:34N 57°44' W 001°38'5 0.2
2014-Jul-29 20:15N 57°49' W 001°42'1115.2
2014-Jul-29 19:33N 57°39' W 001°43'1515.1
2014-Jul-29 18:33N 57°24' W 001°45'1813.9
2014-Jul-29 17:15N 57°08' W 002°04'0 0.5
2014-Jul-29 16:32N 57°09' W 002°05'0 0.0
2014-Jul-29 14:32N 57°09' W 002°05'0 0.0
2014-Jul-29 13:26N 57°09' W 002°05'0 0.0
2014-Jul-29 10:08N 57°09' W 002°05'0 0.0
2014-Jul-29 08:32N 57°09' W 002°05'1 0.4
2014-Jul-29 06:33N 57°09' W 002°03'2411.6
2014-Jul-29 04:27N 57°30' W 001°41'1415.3
2014-Jul-29 03:33N 57°43' W 001°38'  
2014-Jul-26 19:09N 57°49' W 001°29'813.9
2014-Jul-26 18:33N 57°40' W 001°30'1414.0
2014-Jul-26 17:33N 57°27' W 001°39'1414.2
2014-Jul-26 16:33N 57°15' W 001°53'9 8.6
2014-Jul-26 15:27N 57°09' W 002°05'0 0.0
2014-Jul-26 14:27N 57°09' W 002°05'0 0.0
2014-Jul-26 11:15N 57°09' W 002°05'0 0.0
2014-Jul-26 10:33N 57°09' W 002°05'0 0.0
2014-Jul-26 09:33N 57°09' W 002°05'0 0.0
2014-Jul-26 07:20N 57°09' W 002°05'10 5.6
2014-Jul-26 05:33N 57°16' W 001°52'1212.1
2014-Jul-26 04:33N 57°26' W 001°42'1212.5
2014-Jul-26 03:33N 57°39' W 001°38'1414.1
2014-Jul-26 02:33N 57°53' W 001°35'1414.1
2014-Jul-26 01:33N 58°07' W 001°33'3214.4
2014-Jul-25 23:21N 58°38' W 001°27'41 1.5
2014-Jul-24 20:31N 57°57' W 001°34'1313.8
2014-Jul-24 19:34N 57°44' W 001°38'1514.5
2014-Jul-24 18:33N 57°30' W 001°40'1514.8
2014-Jul-24 17:33N 57°16' W 001°52'1110.0
2014-Jul-24 16:30N 57°09' W 002°05'0 0.0
2014-Jul-24 15:30N 57°09' W 002°05'0 0.0
2014-Jul-24 13:30N 57°09' W 002°05'0 0.0
2014-Jul-24 12:18N 57°09' W 002°05'0 0.0
2014-Jul-24 11:30N 57°09' W 002°05'0 0.0
2014-Jul-24 10:24N 57°09' W 002°05'0 0.1
2014-Jul-24 08:33N 57°09' W 002°05'3 2.7
2014-Jul-24 07:27N 57°10' W 001°60'1 1.1
2014-Jul-24 06:31N 57°11' W 001°58'1212.9
2014-Jul-24 05:33N 57°22' W 001°47'1212.2
2014-Jul-24 04:33N 57°33' W 001°41'1312.5
2014-Jul-24 03:33N 57°46' W 001°38'1413.3
2014-Jul-24 02:31N 57°59' W 001°35'1413.3
2014-Jul-24 01:28N 58°13' W 001°32'1313.7
2014-Jul-24 00:32N 58°26' W 001°28'  
Track history (hours):
 
Tides and Currents Weather Stations Pressure Air Temp Water Temp Dewpoint Dewpoint Depression Visibility Wind Speed Wind Dir Waves Ship Positions

Helliar

Last reported at 2014-Aug-02 13:13 UTC. Time now 2014-Aug-23 13:26 UTC.
Position N 53°32' W 003°11'.
Warning: this ship's position is 21 days out of date.

Length 122 m; draft 5 m.

Type: Cargo ship. MMSI: 235087119.

Date/timePositionNaut miles runAvg speedWind from/ knotsBaromVisibWave heightAir tempDewpointWater temp
2014-Aug-02 13:13N 53°32' W 003°11'6 7.0
2014-Aug-02 12:19N 53°31' W 003°22'5 6.9
2014-Aug-02 11:34N 53°31' W 003°30'1312.7
2014-Aug-02 10:33N 53°32' W 003°52'1313.0
2014-Aug-02 09:33N 53°39' W 004°10'5410.7
2014-Aug-02 04:33N 54°21' W 005°08'1211.8
2014-Aug-02 03:33N 54°31' W 005°16'1111.4
2014-Aug-02 02:33N 54°42' W 005°24'1212.1
2014-Aug-02 01:33N 54°52' W 005°34'1312.8
2014-Aug-02 00:30N 55°04' W 005°45'1414.2
2014-Aug-01 23:33N 55°15' W 005°60'1515.0
2014-Aug-01 22:33N 55°23' W 006°21'1514.9
2014-Aug-01 21:34N 55°33' W 006°41'1414.1
2014-Aug-01 20:33N 55°44' W 006°57'19711.6
2014-Aug-01 03:33N 58°44' W 004°29'1414.2
2014-Aug-01 02:33N 58°43' W 004°02'1313.4
2014-Aug-01 01:33N 58°43' W 003°36'1312.1
2014-Aug-01 00:31N 58°43' W 003°11'7 7.7
2014-Jul-31 23:33N 58°39' W 002°59'5813.5
2014-Jul-31 19:15N 57°50' W 001°60'1014.4
2014-Jul-31 18:34N 57°42' W 001°50'1313.2
2014-Jul-31 17:33N 57°29' W 001°44'1312.5
2014-Jul-31 16:33N 57°17' W 001°51'1110.9
2014-Jul-31 15:30N 57°09' W 002°05'0 0.2
2014-Jul-31 14:28N 57°09' W 002°05'0 0.0
2014-Jul-31 13:28N 57°09' W 002°05'0 0.0
2014-Jul-31 12:28N 57°09' W 002°05'0 0.0
2014-Jul-31 11:28N 57°09' W 002°05'0 0.0
2014-Jul-31 10:22N 57°09' W 002°05'0 0.0
2014-Jul-31 09:28N 57°09' W 002°05'0 0.0
2014-Jul-31 08:28N 57°09' W 002°05'0 0.0
2014-Jul-31 07:29N 57°09' W 002°05'12 6.4
2014-Jul-31 05:33N 57°18' W 001°50'1313.2
2014-Jul-31 04:33N 57°30' W 001°40'1514.9
2014-Jul-31 03:34N 57°44' W 001°38'5 0.2
2014-Jul-29 20:15N 57°49' W 001°42'1115.2
2014-Jul-29 19:33N 57°39' W 001°43'1515.1
2014-Jul-29 18:33N 57°24' W 001°45'1813.9
2014-Jul-29 17:15N 57°08' W 002°04'0 0.5
2014-Jul-29 16:32N 57°09' W 002°05'0 0.0
2014-Jul-29 14:32N 57°09' W 002°05'0 0.0
2014-Jul-29 13:26N 57°09' W 002°05'0 0.0
2014-Jul-29 10:08N 57°09' W 002°05'0 0.0
2014-Jul-29 08:32N 57°09' W 002°05'1 0.4
2014-Jul-29 06:33N 57°09' W 002°03'2411.6
2014-Jul-29 04:27N 57°30' W 001°41'1415.3
2014-Jul-29 03:33N 57°43' W 001°38'  
2014-Jul-26 19:09N 57°49' W 001°29'813.9
2014-Jul-26 18:33N 57°40' W 001°30'1414.0
2014-Jul-26 17:33N 57°27' W 001°39'1414.2
2014-Jul-26 16:33N 57°15' W 001°53'9 8.6
2014-Jul-26 15:27N 57°09' W 002°05'0 0.0
2014-Jul-26 14:27N 57°09' W 002°05'0 0.0
2014-Jul-26 11:15N 57°09' W 002°05'0 0.0
2014-Jul-26 10:33N 57°09' W 002°05'0 0.0
2014-Jul-26 09:33N 57°09' W 002°05'0 0.0
2014-Jul-26 07:20N 57°09' W 002°05'10 5.6
2014-Jul-26 05:33N 57°16' W 001°52'1212.1
2014-Jul-26 04:33N 57°26' W 001°42'1212.5
2014-Jul-26 03:33N 57°39' W 001°38'1414.1
2014-Jul-26 02:33N 57°53' W 001°35'1414.1
2014-Jul-26 01:33N 58°07' W 001°33'3214.4
2014-Jul-25 23:21N 58°38' W 001°27'41 1.5
2014-Jul-24 20:31N 57°57' W 001°34'1313.8
2014-Jul-24 19:34N 57°44' W 001°38'1514.5
2014-Jul-24 18:33N 57°30' W 001°40'1514.8
2014-Jul-24 17:33N 57°16' W 001°52'1110.0
2014-Jul-24 16:30N 57°09' W 002°05'0 0.0
2014-Jul-24 15:30N 57°09' W 002°05'0 0.0
2014-Jul-24 13:30N 57°09' W 002°05'0 0.0
2014-Jul-24 12:18N 57°09' W 002°05'0 0.0
2014-Jul-24 11:30N 57°09' W 002°05'0 0.0
2014-Jul-24 10:24N 57°09' W 002°05'0 0.1
2014-Jul-24 08:33N 57°09' W 002°05'3 2.7
2014-Jul-24 07:27N 57°10' W 001°60'1 1.1
2014-Jul-24 06:31N 57°11' W 001°58'1212.9
2014-Jul-24 05:33N 57°22' W 001°47'1212.2
2014-Jul-24 04:33N 57°33' W 001°41'1312.5
2014-Jul-24 03:33N 57°46' W 001°38'1413.3
2014-Jul-24 02:31N 57°59' W 001°35'1413.3
2014-Jul-24 01:28N 58°13' W 001°32'1313.7
2014-Jul-24 00:32N 58°26' W 001°28'  

Dump ship's entire track history